sensor_id;sensor_type;location;lat;lon;timestamp;pressure;altitude;pressure_sealevel;temperature;humidity
26531;BME280;14201;43.188;24.160;2022-10-16T00:00:27;100447.72;;;8.11;69.95
26531;BME280;14201;43.188;24.160;2022-10-16T00:02:52;100449.38;;;7.97;70.63
26531;BME280;14201;43.188;24.160;2022-10-16T00:05:18;100456.06;;;7.93;71.83
26531;BME280;14201;43.188;24.160;2022-10-16T00:07:43;100450.97;;;7.95;73.20
26531;BME280;14201;43.188;24.160;2022-10-16T00:10:08;100448.59;;;8.11;72.52
26531;BME280;14201;43.188;24.160;2022-10-16T00:12:34;100450.47;;;8.00;71.22
26531;BME280;14201;43.188;24.160;2022-10-16T00:14:59;100463.56;;;8.02;71.58
26531;BME280;14201;43.188;24.160;2022-10-16T00:17:24;100465.97;;;7.99;71.38
26531;BME280;14201;43.188;24.160;2022-10-16T00:19:50;100466.47;;;7.93;72.20
26531;BME280;14201;43.188;24.160;2022-10-16T00:22:15;100466.34;;;7.92;72.00
26531;BME280;14201;43.188;24.160;2022-10-16T00:24:40;100462.75;;;7.89;70.60
26531;BME280;14201;43.188;24.160;2022-10-16T00:27:06;100462.03;;;7.79;69.61
26531;BME280;14201;43.188;24.160;2022-10-16T00:29:31;100464.22;;;7.73;70.29
26531;BME280;14201;43.188;24.160;2022-10-16T00:31:57;100464.69;;;7.67;72.63
26531;BME280;14201;43.188;24.160;2022-10-16T00:34:22;100462.47;;;7.60;73.32
26531;BME280;14201;43.188;24.160;2022-10-16T00:36:47;100463.78;;;7.53;75.05
26531;BME280;14201;43.188;24.160;2022-10-16T00:39:13;100461.28;;;7.55;74.84
26531;BME280;14201;43.188;24.160;2022-10-16T00:41:38;100457.09;;;7.57;74.92
26531;BME280;14201;43.188;24.160;2022-10-16T00:44:40;100465.47;;;7.53;75.03
26531;BME280;14201;43.188;24.160;2022-10-16T00:46:49;100465.28;;;7.63;75.20
26531;BME280;14201;43.188;24.160;2022-10-16T00:49:16;100456.03;;;7.66;74.71
26531;BME280;14201;43.188;24.160;2022-10-16T00:51:43;100457.16;;;7.70;75.34
26531;BME280;14201;43.188;24.160;2022-10-16T00:54:10;100464.69;;;7.67;75.35
26531;BME280;14201;43.188;24.160;2022-10-16T00:56:36;100458.16;;;7.72;74.89
26531;BME280;14201;43.188;24.160;2022-10-16T00:59:06;100459.03;;;7.73;74.16
26531;BME280;14201;43.188;24.160;2022-10-16T01:01:35;100464.00;;;7.69;74.41
26531;BME280;14201;43.188;24.160;2022-10-16T01:04:00;100454.22;;;7.65;72.06
26531;BME280;14201;43.188;24.160;2022-10-16T01:06:31;100461.00;;;7.63;70.42
26531;BME280;14201;43.188;24.160;2022-10-16T01:11:45;100454.13;;;7.51;73.23
26531;BME280;14201;43.188;24.160;2022-10-16T01:14:19;100454.06;;;7.37;74.63
26531;BME280;14201;43.188;24.160;2022-10-16T01:16:55;100463.81;;;7.28;74.68
26531;BME280;14201;43.188;24.160;2022-10-16T01:22:14;100460.97;;;7.37;75.28
26531;BME280;14201;43.188;24.160;2022-10-16T01:24:43;100466.56;;;7.18;76.67
26531;BME280;14201;43.188;24.160;2022-10-16T01:27:18;100469.94;;;7.17;77.79
26531;BME280;14201;43.188;24.160;2022-10-16T01:32:15;100475.44;;;6.96;77.33
26531;BME280;14201;43.188;24.160;2022-10-16T01:34:45;100475.63;;;6.99;77.33
26531;BME280;14201;43.188;24.160;2022-10-16T01:37:14;100472.41;;;7.15;76.46
26531;BME280;14201;43.188;24.160;2022-10-16T01:39:41;100482.34;;;7.09;77.64
26531;BME280;14201;43.188;24.160;2022-10-16T01:42:30;100478.75;;;7.07;77.57
26531;BME280;14201;43.188;24.160;2022-10-16T01:44:53;100479.56;;;7.06;77.75
26531;BME280;14201;43.188;24.160;2022-10-16T01:47:19;100480.28;;;7.17;77.04
26531;BME280;14201;43.188;24.160;2022-10-16T01:49:47;100481.41;;;7.20;76.62
26531;BME280;14201;43.188;24.160;2022-10-16T01:52:14;100483.41;;;7.24;76.36
26531;BME280;14201;43.188;24.160;2022-10-16T01:54:42;100474.47;;;7.33;75.78
26531;BME280;14201;43.188;24.160;2022-10-16T01:57:08;100482.56;;;7.37;75.51
26531;BME280;14201;43.188;24.160;2022-10-16T01:59:35;100485.28;;;7.39;75.58
26531;BME280;14201;43.188;24.160;2022-10-16T02:02:04;100483.59;;;7.39;75.06
26531;BME280;14201;43.188;24.160;2022-10-16T02:07:36;100486.34;;;7.29;75.99
26531;BME280;14201;43.188;24.160;2022-10-16T02:10:02;100483.16;;;7.33;76.01
26531;BME280;14201;43.188;24.160;2022-10-16T02:12:28;100489.72;;;7.28;76.09
26531;BME280;14201;43.188;24.160;2022-10-16T02:14:55;100491.03;;;7.35;75.96
26531;BME280;14201;43.188;24.160;2022-10-16T02:17:20;100490.88;;;7.45;75.62
26531;BME280;14201;43.188;24.160;2022-10-16T02:19:46;100488.19;;;7.43;76.64
26531;BME280;14201;43.188;24.160;2022-10-16T02:22:17;100493.94;;;7.39;76.35
26531;BME280;14201;43.188;24.160;2022-10-16T02:24:52;100489.94;;;7.31;75.66
26531;BME280;14201;43.188;24.160;2022-10-16T02:27:24;100493.19;;;7.28;75.99
26531;BME280;14201;43.188;24.160;2022-10-16T02:29:56;100493.13;;;7.27;76.16
26531;BME280;14201;43.188;24.160;2022-10-16T02:32:25;100495.91;;;7.30;75.40
26531;BME280;14201;43.188;24.160;2022-10-16T02:34:53;100501.66;;;7.26;75.58
26531;BME280;14201;43.188;24.160;2022-10-16T02:37:19;100501.88;;;7.29;75.64
26531;BME280;14201;43.188;24.160;2022-10-16T02:39:45;100503.47;;;7.27;75.22
26531;BME280;14201;43.188;24.160;2022-10-16T02:42:14;100506.16;;;7.28;74.71
26531;BME280;14201;43.188;24.160;2022-10-16T02:44:39;100505.84;;;7.24;74.87
26531;BME280;14201;43.188;24.160;2022-10-16T02:47:04;100505.84;;;7.24;75.61
26531;BME280;14201;43.188;24.160;2022-10-16T02:49:30;100506.97;;;7.27;76.09
26531;BME280;14201;43.188;24.160;2022-10-16T02:51:55;100501.53;;;6.99;77.78
26531;BME280;14201;43.188;24.160;2022-10-16T02:54:20;100501.09;;;6.93;77.90
26531;BME280;14201;43.188;24.160;2022-10-16T02:56:46;100503.13;;;6.97;76.84
26531;BME280;14201;43.188;24.160;2022-10-16T02:59:11;100503.66;;;7.05;76.55
26531;BME280;14201;43.188;24.160;2022-10-16T03:01:36;100505.25;;;7.03;76.47
26531;BME280;14201;43.188;24.160;2022-10-16T03:04:02;100498.47;;;7.05;77.04
26531;BME280;14201;43.188;24.160;2022-10-16T03:06:27;100501.63;;;7.01;77.18
26531;BME280;14201;43.188;24.160;2022-10-16T03:08:53;100502.97;;;7.07;76.85
26531;BME280;14201;43.188;24.160;2022-10-16T03:11:18;100501.06;;;7.05;76.82
26531;BME280;14201;43.188;24.160;2022-10-16T03:13:43;100499.75;;;6.98;77.57
26531;BME280;14201;43.188;24.160;2022-10-16T03:16:09;100513.69;;;7.00;77.31
26531;BME280;14201;43.188;24.160;2022-10-16T03:18:34;100509.53;;;7.02;77.45
26531;BME280;14201;43.188;24.160;2022-10-16T03:21:00;100510.53;;;7.04;77.53
26531;BME280;14201;43.188;24.160;2022-10-16T03:23:25;100513.25;;;7.06;77.70
26531;BME280;14201;43.188;24.160;2022-10-16T03:25:50;100520.19;;;7.07;77.71
26531;BME280;14201;43.188;24.160;2022-10-16T03:28:16;100519.72;;;7.13;76.86
26531;BME280;14201;43.188;24.160;2022-10-16T03:30:42;100520.88;;;7.04;77.25
26531;BME280;14201;43.188;24.160;2022-10-16T03:33:07;100522.59;;;7.04;77.21
26531;BME280;14201;43.188;24.160;2022-10-16T03:35:33;100526.22;;;6.94;77.35
26531;BME280;14201;43.188;24.160;2022-10-16T03:37:58;100528.31;;;7.00;72.74
26531;BME280;14201;43.188;24.160;2022-10-16T03:40:24;100536.59;;;6.94;72.96
26531;BME280;14201;43.188;24.160;2022-10-16T03:42:49;100529.81;;;6.96;73.55
26531;BME280;14201;43.188;24.160;2022-10-16T03:45:14;100530.13;;;7.01;74.23
26531;BME280;14201;43.188;24.160;2022-10-16T03:47:40;100537.00;;;7.00;74.36
26531;BME280;14201;43.188;24.160;2022-10-16T03:50:06;100531.94;;;6.90;74.86
26531;BME280;14201;43.188;24.160;2022-10-16T03:52:31;100529.28;;;6.88;75.43
26531;BME280;14201;43.188;24.160;2022-10-16T03:54:57;100529.50;;;6.80;76.82
26531;BME280;14201;43.188;24.160;2022-10-16T03:57:23;100540.97;;;6.83;77.17
26531;BME280;14201;43.188;24.160;2022-10-16T03:59:48;100538.28;;;6.82;77.17
26531;BME280;14201;43.188;24.160;2022-10-16T04:02:14;100536.81;;;6.85;77.74
26531;BME280;14201;43.188;24.160;2022-10-16T04:04:39;100542.88;;;6.86;76.46
26531;BME280;14201;43.188;24.160;2022-10-16T04:07:04;100540.97;;;6.83;75.97
26531;BME280;14201;43.188;24.160;2022-10-16T04:09:30;100540.09;;;6.83;75.75
26531;BME280;14201;43.188;24.160;2022-10-16T04:11:55;100542.56;;;6.81;74.51
26531;BME280;14201;43.188;24.160;2022-10-16T04:14:20;100545.28;;;6.83;74.10
26531;BME280;14201;43.188;24.160;2022-10-16T04:16:46;100546.50;;;6.76;73.91
26531;BME280;14201;43.188;24.160;2022-10-16T04:19:11;100544.38;;;6.70;74.43
26531;BME280;14201;43.188;24.160;2022-10-16T04:21:37;100549.09;;;6.64;74.52
26531;BME280;14201;43.188;24.160;2022-10-16T04:24:02;100548.44;;;6.67;74.57
26531;BME280;14201;43.188;24.160;2022-10-16T04:26:28;100543.72;;;6.61;75.32
26531;BME280;14201;43.188;24.160;2022-10-16T04:28:54;100550.38;;;6.58;75.73
26531;BME280;14201;43.188;24.160;2022-10-16T04:31:19;100554.66;;;6.57;74.49
26531;BME280;14201;43.188;24.160;2022-10-16T04:33:45;100557.88;;;6.55;74.81
26531;BME280;14201;43.188;24.160;2022-10-16T04:36:10;100563.75;;;6.52;76.10
26531;BME280;14201;43.188;24.160;2022-10-16T04:38:36;100550.38;;;6.46;76.05
26531;BME280;14201;43.188;24.160;2022-10-16T04:41:03;100565.91;;;6.46;73.79
26531;BME280;14201;43.188;24.160;2022-10-16T04:43:28;100569.69;;;6.39;73.03
26531;BME280;14201;43.188;24.160;2022-10-16T04:45:53;100570.94;;;6.33;72.41
26531;BME280;14201;43.188;24.160;2022-10-16T04:48:19;100571.59;;;6.18;73.37
26531;BME280;14201;43.188;24.160;2022-10-16T04:50:45;100569.78;;;6.05;74.99
26531;BME280;14201;43.188;24.160;2022-10-16T04:53:11;100576.88;;;6.20;75.04
26531;BME280;14201;43.188;24.160;2022-10-16T04:55:36;100572.06;;;6.36;75.82
26531;BME280;14201;43.188;24.160;2022-10-16T04:58:03;100574.66;;;6.48;76.32
26531;BME280;14201;43.188;24.160;2022-10-16T05:00:28;100572.75;;;6.57;77.49
26531;BME280;14201;43.188;24.160;2022-10-16T05:02:53;100577.69;;;6.66;77.10
26531;BME280;14201;43.188;24.160;2022-10-16T05:05:19;100579.50;;;6.79;77.40
26531;BME280;14201;43.188;24.160;2022-10-16T05:07:45;100585.13;;;6.85;77.86
26531;BME280;14201;43.188;24.160;2022-10-16T05:10:10;100582.72;;;6.88;78.05
26531;BME280;14201;43.188;24.160;2022-10-16T05:12:36;100579.66;;;7.05;78.11
26531;BME280;14201;43.188;24.160;2022-10-16T05:15:01;100578.06;;;7.19;77.80
26531;BME280;14201;43.188;24.160;2022-10-16T05:17:27;100585.66;;;7.41;77.67
26531;BME280;14201;43.188;24.160;2022-10-16T05:19:52;100592.63;;;7.54;76.99
26531;BME280;14201;43.188;24.160;2022-10-16T05:22:17;100589.28;;;7.68;76.22
26531;BME280;14201;43.188;24.160;2022-10-16T05:24:43;100588.44;;;7.81;76.24
26531;BME280;14201;43.188;24.160;2022-10-16T05:27:09;100604.22;;;7.98;76.83
26531;BME280;14201;43.188;24.160;2022-10-16T05:29:34;100596.06;;;8.05;77.59
26531;BME280;14201;43.188;24.160;2022-10-16T05:32:00;100607.09;;;8.27;77.62
26531;BME280;14201;43.188;24.160;2022-10-16T05:34:25;100603.06;;;8.44;77.24
26531;BME280;14201;43.188;24.160;2022-10-16T05:36:51;100608.97;;;8.55;77.47
26531;BME280;14201;43.188;24.160;2022-10-16T05:39:16;100616.56;;;8.65;76.09
26531;BME280;14201;43.188;24.160;2022-10-16T05:41:42;100615.16;;;8.84;76.68
26531;BME280;14201;43.188;24.160;2022-10-16T05:44:07;100613.84;;;9.04;75.91
26531;BME280;14201;43.188;24.160;2022-10-16T05:46:33;100616.72;;;9.22;75.25
26531;BME280;14201;43.188;24.160;2022-10-16T05:48:58;100621.66;;;9.04;74.91
26531;BME280;14201;43.188;24.160;2022-10-16T05:51:24;100622.03;;;9.23;74.36
26531;BME280;14201;43.188;24.160;2022-10-16T05:53:49;100634.19;;;9.38;74.73
26531;BME280;14201;43.188;24.160;2022-10-16T05:56:15;100631.56;;;9.51;75.80
26531;BME280;14201;43.188;24.160;2022-10-16T05:58:41;100632.03;;;9.59;74.90
26531;BME280;14201;43.188;24.160;2022-10-16T06:01:08;100629.88;;;9.80;74.53
26531;BME280;14201;43.188;24.160;2022-10-16T06:03:34;100634.03;;;10.06;73.76
26531;BME280;14201;43.188;24.160;2022-10-16T06:06:06;100635.53;;;10.31;73.95
26531;BME280;14201;43.188;24.160;2022-10-16T06:08:32;100637.88;;;10.41;75.32
26531;BME280;14201;43.188;24.160;2022-10-16T06:11:01;100643.91;;;10.40;76.15
26531;BME280;14201;43.188;24.160;2022-10-16T06:13:27;100634.66;;;10.45;76.00
26531;BME280;14201;43.188;24.160;2022-10-16T06:15:53;100638.88;;;10.58;75.77
26531;BME280;14201;43.188;24.160;2022-10-16T06:18:18;100637.16;;;10.58;76.65
26531;BME280;14201;43.188;24.160;2022-10-16T06:20:43;100647.50;;;10.72;76.27
26531;BME280;14201;43.188;24.160;2022-10-16T06:23:09;100637.78;;;10.84;76.42
26531;BME280;14201;43.188;24.160;2022-10-16T06:25:34;100639.38;;;10.97;77.30
26531;BME280;14201;43.188;24.160;2022-10-16T06:28:00;100640.66;;;11.20;79.52
26531;BME280;14201;43.188;24.160;2022-10-16T06:30:25;100646.94;;;11.55;78.07
26531;BME280;14201;43.188;24.160;2022-10-16T06:32:51;100657.22;;;11.52;76.10
26531;BME280;14201;43.188;24.160;2022-10-16T06:35:16;100663.56;;;11.57;76.03
26531;BME280;14201;43.188;24.160;2022-10-16T06:37:41;100657.78;;;11.62;75.76
26531;BME280;14201;43.188;24.160;2022-10-16T06:40:07;100671.00;;;11.97;76.20
26531;BME280;14201;43.188;24.160;2022-10-16T06:42:32;100671.22;;;12.18;73.39
26531;BME280;14201;43.188;24.160;2022-10-16T06:44:58;100670.88;;;12.45;74.48
26531;BME280;14201;43.188;24.160;2022-10-16T06:47:23;100670.66;;;12.58;72.79
26531;BME280;14201;43.188;24.160;2022-10-16T06:49:49;100668.75;;;12.72;71.18
26531;BME280;14201;43.188;24.160;2022-10-16T06:52:14;100673.91;;;12.88;72.76
26531;BME280;14201;43.188;24.160;2022-10-16T06:54:40;100679.81;;;13.20;70.52
26531;BME280;14201;43.188;24.160;2022-10-16T06:57:05;100681.72;;;13.41;72.27
26531;BME280;14201;43.188;24.160;2022-10-16T06:59:30;100679.31;;;13.63;71.41
26531;BME280;14201;43.188;24.160;2022-10-16T07:01:56;100680.72;;;13.94;69.39
26531;BME280;14201;43.188;24.160;2022-10-16T07:04:22;100678.56;;;14.24;69.64
26531;BME280;14201;43.188;24.160;2022-10-16T07:06:47;100686.88;;;14.54;68.80
26531;BME280;14201;43.188;24.160;2022-10-16T07:09:12;100695.00;;;14.80;67.81
26531;BME280;14201;43.188;24.160;2022-10-16T07:11:38;100689.19;;;15.08;65.99
26531;BME280;14201;43.188;24.160;2022-10-16T07:14:04;100687.53;;;15.33;66.98
26531;BME280;14201;43.188;24.160;2022-10-16T07:16:30;100687.38;;;15.51;64.93
26531;BME280;14201;43.188;24.160;2022-10-16T07:18:57;100685.94;;;15.59;62.92
26531;BME280;14201;43.188;24.160;2022-10-16T07:21:28;100689.03;;;15.71;61.74
26531;BME280;14201;43.188;24.160;2022-10-16T07:23:59;100686.16;;;15.65;61.90
26531;BME280;14201;43.188;24.160;2022-10-16T07:26:28;100688.69;;;15.85;60.38
26531;BME280;14201;43.188;24.160;2022-10-16T07:28:55;100685.97;;;16.06;61.22
26531;BME280;14201;43.188;24.160;2022-10-16T07:31:23;100683.28;;;16.28;60.36
26531;BME280;14201;43.188;24.160;2022-10-16T07:33:49;100683.28;;;16.52;60.41
26531;BME280;14201;43.188;24.160;2022-10-16T07:36:16;100691.78;;;16.71;61.58
26531;BME280;14201;43.188;24.160;2022-10-16T07:38:43;100691.00;;;16.73;60.22
26531;BME280;14201;43.188;24.160;2022-10-16T07:41:12;100686.59;;;16.98;61.14
26531;BME280;14201;43.188;24.160;2022-10-16T07:43:37;100682.38;;;17.30;59.89
26531;BME280;14201;43.188;24.160;2022-10-16T07:46:03;100668.56;;;17.38;57.27
26531;BME280;14201;43.188;24.160;2022-10-16T07:48:31;100683.47;;;17.66;58.46
26531;BME280;14201;43.188;24.160;2022-10-16T07:51:03;100695.59;;;17.88;55.39
26531;BME280;14201;43.188;24.160;2022-10-16T07:53:29;100689.41;;;18.18;51.93
26531;BME280;14201;43.188;24.160;2022-10-16T07:56:04;100686.81;;;18.51;52.22
26531;BME280;14201;43.188;24.160;2022-10-16T07:58:31;100691.09;;;18.79;53.48
26531;BME280;14201;43.188;24.160;2022-10-16T08:00:58;100689.56;;;18.87;47.95
26531;BME280;14201;43.188;24.160;2022-10-16T08:03:24;100696.59;;;19.22;50.32
26531;BME280;14201;43.188;24.160;2022-10-16T08:05:50;100687.66;;;19.17;48.54
26531;BME280;14201;43.188;24.160;2022-10-16T08:08:17;100694.59;;;19.12;47.47
26531;BME280;14201;43.188;24.160;2022-10-16T08:10:44;100691.41;;;19.26;48.02
26531;BME280;14201;43.188;24.160;2022-10-16T08:13:10;100686.06;;;19.25;48.46
26531;BME280;14201;43.188;24.160;2022-10-16T08:15:35;100692.56;;;19.76;47.96
26531;BME280;14201;43.188;24.160;2022-10-16T08:18:03;100690.16;;;19.86;45.21
26531;BME280;14201;43.188;24.160;2022-10-16T08:20:30;100695.19;;;20.17;45.78
26531;BME280;14201;43.188;24.160;2022-10-16T08:22:56;100692.97;;;19.94;44.45
26531;BME280;14201;43.188;24.160;2022-10-16T08:25:23;100690.56;;;20.05;45.25
26531;BME280;14201;43.188;24.160;2022-10-16T08:27:49;100683.50;;;20.05;44.54
26531;BME280;14201;43.188;24.160;2022-10-16T08:30:15;100689.09;;;20.21;43.87
26531;BME280;14201;43.188;24.160;2022-10-16T08:32:41;100691.50;;;20.09;43.88
26531;BME280;14201;43.188;24.160;2022-10-16T08:35:11;100694.47;;;19.81;44.72
26531;BME280;14201;43.188;24.160;2022-10-16T08:37:37;100686.34;;;20.15;43.95
26531;BME280;14201;43.188;24.160;2022-10-16T08:40:05;100691.94;;;20.30;44.60
26531;BME280;14201;43.188;24.160;2022-10-16T08:42:41;100684.63;;;20.61;43.33
26531;BME280;14201;43.188;24.160;2022-10-16T08:45:19;100693.91;;;20.88;42.47
26531;BME280;14201;43.188;24.160;2022-10-16T08:47:56;100699.91;;;20.33;43.05
26531;BME280;14201;43.188;24.160;2022-10-16T08:50:31;100696.03;;;20.16;43.27
26531;BME280;14201;43.188;24.160;2022-10-16T08:52:58;100701.09;;;20.48;42.78
26531;BME280;14201;43.188;24.160;2022-10-16T08:55:43;100698.72;;;20.17;43.64
26531;BME280;14201;43.188;24.160;2022-10-16T08:58:14;100698.66;;;20.13;44.10
26531;BME280;14201;43.188;24.160;2022-10-16T09:00:41;100701.53;;;19.82;44.84
26531;BME280;14201;43.188;24.160;2022-10-16T09:03:32;100691.47;;;19.67;43.87
26531;BME280;14201;43.188;24.160;2022-10-16T09:06:31;100699.97;;;20.35;43.27
26531;BME280;14201;43.188;24.160;2022-10-16T09:17:17;100702.00;;;21.52;42.25
26531;BME280;14201;43.188;24.160;2022-10-16T09:19:53;100695.63;;;21.98;41.03
26531;BME280;14201;43.188;24.160;2022-10-16T09:22:22;100694.31;;;22.39;39.94
26531;BME280;14201;43.188;24.160;2022-10-16T09:24:52;100698.13;;;22.63;38.33
26531;BME280;14201;43.188;24.160;2022-10-16T09:27:19;100699.34;;;22.14;38.30
26531;BME280;14201;43.188;24.160;2022-10-16T09:29:45;100693.00;;;21.42;38.51
26531;BME280;14201;43.188;24.160;2022-10-16T09:32:14;100689.69;;;20.99;38.75
26531;BME280;14201;43.188;24.160;2022-10-16T09:34:45;100694.69;;;20.82;39.66
26531;BME280;14201;43.188;24.160;2022-10-16T09:37:14;100691.31;;;20.91;39.63
26531;BME280;14201;43.188;24.160;2022-10-16T09:39:50;100692.59;;;21.16;38.71
26531;BME280;14201;43.188;24.160;2022-10-16T09:42:21;100677.38;;;20.54;40.58
26531;BME280;14201;43.188;24.160;2022-10-16T09:44:52;100679.84;;;20.92;40.98
26531;BME280;14201;43.188;24.160;2022-10-16T09:47:26;100677.66;;;21.19;40.36
26531;BME280;14201;43.188;24.160;2022-10-16T09:49:55;100682.34;;;20.82;40.73
26531;BME280;14201;43.188;24.160;2022-10-16T09:52:23;100677.28;;;20.48;41.41
26531;BME280;14201;43.188;24.160;2022-10-16T09:54:51;100682.97;;;20.68;40.14
26531;BME280;14201;43.188;24.160;2022-10-16T09:57:17;100664.50;;;20.72;40.52
26531;BME280;14201;43.188;24.160;2022-10-16T09:59:47;100664.59;;;21.32;40.08
26531;BME280;14201;43.188;24.160;2022-10-16T10:02:15;100671.41;;;21.16;39.43
26531;BME280;14201;43.188;24.160;2022-10-16T10:04:48;100661.47;;;21.59;39.37
26531;BME280;14201;43.188;24.160;2022-10-16T10:07:18;100652.63;;;22.26;38.87
26531;BME280;14201;43.188;24.160;2022-10-16T10:09:46;100655.91;;;22.95;37.12
26531;BME280;14201;43.188;24.160;2022-10-16T10:12:21;100651.59;;;23.03;34.82
26531;BME280;14201;43.188;24.160;2022-10-16T10:14:55;100646.94;;;22.84;34.53
26531;BME280;14201;43.188;24.160;2022-10-16T10:17:26;100660.56;;;22.27;35.27
26531;BME280;14201;43.188;24.160;2022-10-16T10:19:59;100659.69;;;21.59;37.22
26531;BME280;14201;43.188;24.160;2022-10-16T10:22:41;100656.94;;;21.52;36.99
26531;BME280;14201;43.188;24.160;2022-10-16T10:30:23;100640.13;;;22.21;34.70
26531;BME280;14201;43.188;24.160;2022-10-16T10:43:29;100629.66;;;22.31;35.79
26531;BME280;14201;43.188;24.160;2022-10-16T10:46:05;100635.72;;;22.22;35.75
26531;BME280;14201;43.188;24.160;2022-10-16T10:48:54;100638.22;;;22.08;35.01
26531;BME280;14201;43.188;24.160;2022-10-16T10:54:35;100630.06;;;21.91;35.39
26531;BME280;14201;43.188;24.160;2022-10-16T10:57:14;100626.69;;;22.05;35.52
26531;BME280;14201;43.188;24.160;2022-10-16T11:03:00;100618.03;;;23.22;35.14
26531;BME280;14201;43.188;24.160;2022-10-16T11:05:59;100620.00;;;23.57;32.63
26531;BME280;14201;43.188;24.160;2022-10-16T11:08:48;100624.91;;;22.94;33.78
26531;BME280;14201;43.188;24.160;2022-10-16T11:19:19;100611.28;;;22.51;33.70
26531;BME280;14201;43.188;24.160;2022-10-16T11:22:03;100609.81;;;22.93;34.67
26531;BME280;14201;43.188;24.160;2022-10-16T11:25:11;100616.63;;;22.57;32.29
26531;BME280;14201;43.188;24.160;2022-10-16T11:31:05;100619.63;;;22.07;34.24
26531;BME280;14201;43.188;24.160;2022-10-16T11:33:43;100626.44;;;21.83;35.63
26531;BME280;14201;43.188;24.160;2022-10-16T11:38:50;100625.66;;;21.93;35.31
26531;BME280;14201;43.188;24.160;2022-10-16T11:44:05;100612.59;;;22.12;34.49
26531;BME280;14201;43.188;24.160;2022-10-16T11:46:35;100623.47;;;22.30;33.92
26531;BME280;14201;43.188;24.160;2022-10-16T11:49:11;100613.19;;;21.83;34.31
26531;BME280;14201;43.188;24.160;2022-10-16T11:51:45;100614.50;;;22.22;34.98
26531;BME280;14201;43.188;24.160;2022-10-16T11:54:51;100600.78;;;22.69;32.89
26531;BME280;14201;43.188;24.160;2022-10-16T11:57:29;100625.22;;;22.28;32.31
26531;BME280;14201;43.188;24.160;2022-10-16T12:02:40;100614.53;;;22.25;34.55
26531;BME280;14201;43.188;24.160;2022-10-16T12:08:09;100628.13;;;22.56;33.09
26531;BME280;14201;43.188;24.160;2022-10-16T12:10:37;100631.31;;;22.22;32.95
26531;BME280;14201;43.188;24.160;2022-10-16T12:18:38;100624.84;;;21.97;33.86
26531;BME280;14201;43.188;24.160;2022-10-16T12:23:54;100610.41;;;22.56;34.61
26531;BME280;14201;43.188;24.160;2022-10-16T12:26:33;100625.34;;;22.42;32.62
26531;BME280;14201;43.188;24.160;2022-10-16T12:29:21;100623.66;;;22.52;31.75
26531;BME280;14201;43.188;24.160;2022-10-16T12:31:49;100613.16;;;22.66;33.11
26531;BME280;14201;43.188;24.160;2022-10-16T12:34:31;100598.75;;;21.61;32.34
26531;BME280;14201;43.188;24.160;2022-10-16T12:37:35;100614.09;;;21.88;33.79
26531;BME280;14201;43.188;24.160;2022-10-16T12:40:23;100614.44;;;22.19;33.77
26531;BME280;14201;43.188;24.160;2022-10-16T12:42:50;100605.81;;;22.35;34.11
26531;BME280;14201;43.188;24.160;2022-10-16T12:45:29;100609.41;;;22.42;34.15
26531;BME280;14201;43.188;24.160;2022-10-16T12:47:57;100613.97;;;22.57;34.24
26531;BME280;14201;43.188;24.160;2022-10-16T12:50:33;100603.97;;;22.31;33.55
26531;BME280;14201;43.188;24.160;2022-10-16T12:53:00;100607.13;;;21.96;33.70
26531;BME280;14201;43.188;24.160;2022-10-16T12:55:32;100620.97;;;21.71;34.98
26531;BME280;14201;43.188;24.160;2022-10-16T13:00:55;100608.53;;;21.67;34.24
26531;BME280;14201;43.188;24.160;2022-10-16T13:21:51;100623.66;;;21.11;34.00
26531;BME280;14201;43.188;24.160;2022-10-16T13:27:34;100616.94;;;21.38;33.21
26531;BME280;14201;43.188;24.160;2022-10-16T13:30:11;100621.41;;;21.39;33.33
26531;BME280;14201;43.188;24.160;2022-10-16T13:32:38;100622.91;;;21.21;33.19
26531;BME280;14201;43.188;24.160;2022-10-16T13:35:19;100620.28;;;21.21;33.55
26531;BME280;14201;43.188;24.160;2022-10-16T13:37:45;100617.31;;;21.01;34.07
26531;BME280;14201;43.188;24.160;2022-10-16T13:40:24;100621.63;;;20.95;33.46
26531;BME280;14201;43.188;24.160;2022-10-16T13:42:50;100621.22;;;20.70;33.79
26531;BME280;14201;43.188;24.160;2022-10-16T13:45:23;100617.94;;;20.85;34.34
26531;BME280;14201;43.188;24.160;2022-10-16T13:47:49;100623.28;;;20.88;35.00
26531;BME280;14201;43.188;24.160;2022-10-16T13:50:17;100626.88;;;20.93;34.74
26531;BME280;14201;43.188;24.160;2022-10-16T13:52:44;100627.22;;;21.13;32.97
26531;BME280;14201;43.188;24.160;2022-10-16T13:55:19;100619.72;;;20.88;34.31
26531;BME280;14201;43.188;24.160;2022-10-16T13:57:44;100621.34;;;20.76;33.96
26531;BME280;14201;43.188;24.160;2022-10-16T14:00:22;100628.25;;;20.68;34.88
26531;BME280;14201;43.188;24.160;2022-10-16T14:03:06;100618.81;;;20.84;35.26
26531;BME280;14201;43.188;24.160;2022-10-16T14:05:33;100620.72;;;20.93;35.09
26531;BME280;14201;43.188;24.160;2022-10-16T14:08:00;100617.22;;;20.95;35.19
26531;BME280;14201;43.188;24.160;2022-10-16T14:10:31;100620.88;;;21.03;35.01
26531;BME280;14201;43.188;24.160;2022-10-16T14:13:00;100624.13;;;20.85;35.23
26531;BME280;14201;43.188;24.160;2022-10-16T14:15:27;100633.66;;;20.76;34.69
26531;BME280;14201;43.188;24.160;2022-10-16T14:17:54;100641.47;;;20.67;34.99
26531;BME280;14201;43.188;24.160;2022-10-16T14:20:24;100623.47;;;20.49;35.00
26531;BME280;14201;43.188;24.160;2022-10-16T14:23:18;100639.38;;;20.50;34.99
26531;BME280;14201;43.188;24.160;2022-10-16T14:25:44;100637.56;;;20.48;34.42
26531;BME280;14201;43.188;24.160;2022-10-16T14:28:20;100645.53;;;20.49;35.02
26531;BME280;14201;43.188;24.160;2022-10-16T14:30:53;100640.19;;;20.46;35.24